WMT39L LRIA-LROP
Flight info
| Callsign | WMT39L |
|---|---|
| Flight time | 0h 31m |
| Altitude | 30000 |
| Route | ABOLO T74 DENAK |
| Aircraft | A20N/M-SDE2E3FGHIRWXY/LB1 |
Departure
| Time | 2026-04-25 18:41 |
|---|---|
| Airport | Iaşi International Airport (LRIA) |
Arrival
| Time | 2026-04-25 19:12 |
|---|---|
| Airport | Bucharest Henri Coandă International Airport (LROP) |
| Time | Latitude | Longitude | Altitude | Speed | Heading |
|---|---|---|---|---|---|
| 2026-04-25 17:09 | 47.17488 | 27.62003 | 365 ft | 0 kts | 274° |
| 2026-04-25 18:02 | 47.17488 | 27.62004 | 365 ft | 2 kts | 274° |
| 2026-04-25 18:02 | 47.17487 | 27.62023 | 368 ft | 2 kts | 274° |
| 2026-04-25 18:02 | 47.17486 | 27.62041 | 365 ft | 2 kts | 274° |
| 2026-04-25 18:03 | 47.17485 | 27.62060 | 368 ft | 2 kts | 274° |
| 2026-04-25 18:03 | 47.17483 | 27.62087 | 367 ft | 3 kts | 292° |
| 2026-04-25 18:03 | 47.17473 | 27.62110 | 364 ft | 3 kts | 323° |
| 2026-04-25 18:03 | 47.17470 | 27.62114 | 367 ft | 0 kts | 329° |
| 2026-04-25 18:11 | 47.17465 | 27.62118 | 363 ft | 0 kts | 339° |
| 2026-04-25 18:13 | 47.17453 | 27.62123 | 368 ft | 3 kts | 360° |
| 2026-04-25 18:14 | 47.17452 | 27.62123 | 367 ft | 0 kts | 0° |
| 2026-04-25 18:22 | 47.17465 | 27.62118 | 363 ft | 0 kts | 336° |
| 2026-04-25 18:26 | 47.17466 | 27.62118 | 363 ft | 0 kts | 336° |
| 2026-04-25 18:35 | 47.17466 | 27.62117 | 363 ft | 0 kts | 336° |
| 2026-04-25 18:36 | 47.17512 | 27.62082 | 365 ft | 19 kts | 331° |
| 2026-04-25 18:36 | 47.17652 | 27.61979 | 370 ft | 24 kts | 333° |
| 2026-04-25 18:36 | 47.17759 | 27.61950 | 374 ft | 10 kts | 54° |
| 2026-04-25 18:37 | 47.17814 | 27.62100 | 373 ft | 20 kts | 63° |
| 2026-04-25 18:37 | 47.17919 | 27.62185 | 374 ft | 20 kts | 328° |
| 2026-04-25 18:37 | 47.18048 | 27.62071 | 381 ft | 23 kts | 329° |
| 2026-04-25 18:37 | 47.18198 | 27.61936 | 389 ft | 27 kts | 329° |
| 2026-04-25 18:38 | 47.18368 | 27.61787 | 395 ft | 31 kts | 328° |
| 2026-04-25 18:38 | 47.18563 | 27.61614 | 402 ft | 34 kts | 329° |
| 2026-04-25 18:38 | 47.18771 | 27.61427 | 413 ft | 35 kts | 330° |
| 2026-04-25 18:38 | 47.18946 | 27.61331 | 421 ft | 2 kts | 299° |
| 2026-04-25 18:39 | 47.18930 | 27.61288 | 419 ft | 11 kts | 206° |
| 2026-04-25 18:39 | 47.18819 | 27.61387 | 412 ft | 30 kts | 147° |
| 2026-04-25 18:39 | 47.18740 | 27.61456 | 411 ft | 0 kts | 147° |
| 2026-04-25 18:40 | 47.18736 | 27.61461 | 411 ft | 5 kts | 148° |
| 2026-04-25 18:41 | 47.18485 | 27.61682 | 400 ft | 81 kts | 148° |
| 2026-04-25 18:41 | 47.17812 | 27.62277 | 371 ft | 143 kts | 149° |
| 2026-04-25 18:41 | 47.16898 | 27.63078 | 761 ft | 155 kts | 151° |
| 2026-04-25 18:41 | 47.15968 | 27.63809 | 1488 ft | 145 kts | 163° |
| 2026-04-25 18:42 | 47.15016 | 27.64048 | 2271 ft | 140 kts | 176° |
| 2026-04-25 18:42 | 47.14360 | 27.63969 | 2506 ft | 150 kts | 206° |
| 2026-04-25 18:42 | 47.13539 | 27.62196 | 3026 ft | 180 kts | 253° |
| 2026-04-25 18:42 | 47.13277 | 27.60281 | 3589 ft | 202 kts | 261° |
| 2026-04-25 18:43 | 47.12958 | 27.58168 | 4321 ft | 223 kts | 250° |
| 2026-04-25 18:43 | 47.12228 | 27.56045 | 5064 ft | 244 kts | 239° |
| 2026-04-25 18:43 | 47.11216 | 27.53939 | 5909 ft | 258 kts | 234° |
| 2026-04-25 18:43 | 47.10090 | 27.51868 | 6971 ft | 263 kts | 233° |
| 2026-04-25 18:44 | 47.08912 | 27.49750 | 8012 ft | 268 kts | 234° |
| 2026-04-25 18:44 | 47.07744 | 27.47633 | 9044 ft | 273 kts | 234° |
| 2026-04-25 18:44 | 47.06532 | 27.45410 | 10075 ft | 278 kts | 235° |
| 2026-04-25 18:44 | 47.05311 | 27.43146 | 10670 ft | 298 kts | 235° |
| 2026-04-25 18:45 | 47.03979 | 27.40662 | 11080 ft | 322 kts | 235° |
| 2026-04-25 18:45 | 47.02557 | 27.38015 | 11719 ft | 334 kts | 235° |
| 2026-04-25 18:45 | 47.01098 | 27.35330 | 12635 ft | 340 kts | 233° |
| 2026-04-25 18:45 | 46.99432 | 27.32821 | 13531 ft | 349 kts | 224° |
| 2026-04-25 18:46 | 46.97305 | 27.30979 | 14340 ft | 361 kts | 205° |
| 2026-04-25 18:46 | 46.94887 | 27.29849 | 15185 ft | 367 kts | 199° |
| 2026-04-25 18:46 | 46.92399 | 27.28908 | 16021 ft | 371 kts | 198° |
| 2026-04-25 18:46 | 46.89887 | 27.27934 | 16828 ft | 375 kts | 199° |
| 2026-04-25 18:47 | 46.87405 | 27.26895 | 17617 ft | 378 kts | 200° |
| 2026-04-25 18:47 | 46.84874 | 27.25776 | 18394 ft | 381 kts | 201° |
| 2026-04-25 18:47 | 46.82333 | 27.24619 | 19090 ft | 385 kts | 201° |
| 2026-04-25 18:47 | 46.79761 | 27.23436 | 19755 ft | 389 kts | 202° |
| 2026-04-25 18:48 | 46.77161 | 27.22237 | 20440 ft | 393 kts | 202° |
| 2026-04-25 18:48 | 46.74538 | 27.21029 | 21112 ft | 398 kts | 202° |
| 2026-04-25 18:48 | 46.71883 | 27.19809 | 21760 ft | 402 kts | 202° |
| 2026-04-25 18:48 | 46.69199 | 27.18576 | 22400 ft | 407 kts | 202° |
| 2026-04-25 18:49 | 46.66477 | 27.17328 | 23044 ft | 412 kts | 202° |
| 2026-04-25 18:49 | 46.63726 | 27.16069 | 23644 ft | 416 kts | 203° |
| 2026-04-25 18:49 | 46.60951 | 27.14801 | 24195 ft | 420 kts | 203° |
| 2026-04-25 18:49 | 46.58149 | 27.13523 | 24749 ft | 423 kts | 203° |
| 2026-04-25 18:50 | 46.56286 | 27.12675 | 25093 ft | 426 kts | 203° |
| 2026-04-25 18:50 | 46.52480 | 27.10939 | 25774 ft | 430 kts | 203° |
| 2026-04-25 18:50 | 46.49612 | 27.09633 | 26264 ft | 434 kts | 203° |
| 2026-04-25 18:50 | 46.46722 | 27.08318 | 26751 ft | 437 kts | 203° |
| 2026-04-25 18:51 | 46.43802 | 27.06991 | 27230 ft | 441 kts | 203° |
| 2026-04-25 18:51 | 46.41857 | 27.06108 | 27534 ft | 443 kts | 203° |
| 2026-04-25 18:51 | 46.37943 | 27.04333 | 28151 ft | 447 kts | 203° |
| 2026-04-25 18:51 | 46.34957 | 27.02981 | 28600 ft | 450 kts | 203° |
| 2026-04-25 18:52 | 46.31958 | 27.01626 | 29028 ft | 453 kts | 203° |
| 2026-04-25 18:52 | 46.28940 | 27.00263 | 29443 ft | 456 kts | 203° |
| 2026-04-25 18:52 | 46.25897 | 26.98890 | 29822 ft | 459 kts | 203° |
| 2026-04-25 18:52 | 46.22845 | 26.97515 | 29931 ft | 460 kts | 203° |
| 2026-04-25 18:53 | 46.16733 | 26.94768 | 29944 ft | 459 kts | 203° |
| 2026-04-25 18:53 | 46.10630 | 26.92028 | 29948 ft | 460 kts | 203° |
| 2026-04-25 18:54 | 46.01469 | 26.87928 | 29954 ft | 459 kts | 203° |
| 2026-04-25 18:55 | 45.95360 | 26.85201 | 29957 ft | 459 kts | 202° |
| 2026-04-25 18:55 | 45.89250 | 26.82482 | 29963 ft | 459 kts | 202° |
| 2026-04-25 18:56 | 45.83181 | 26.79787 | 29969 ft | 460 kts | 202° |
| 2026-04-25 18:56 | 45.77017 | 26.77056 | 29966 ft | 461 kts | 202° |
| 2026-04-25 18:57 | 45.70927 | 26.74364 | 29976 ft | 462 kts | 202° |
| 2026-04-25 18:57 | 45.67858 | 26.73011 | 29833 ft | 459 kts | 202° |
| 2026-04-25 18:57 | 45.64805 | 26.71667 | 29165 ft | 459 kts | 202° |
| 2026-04-25 18:57 | 45.63771 | 26.71211 | 28834 ft | 460 kts | 202° |
| 2026-04-25 18:58 | 45.58640 | 26.68948 | 26916 ft | 470 kts | 202° |
| 2026-04-25 18:58 | 45.52298 | 26.66160 | 24348 ft | 483 kts | 201° |
| 2026-04-25 18:58 | 45.49075 | 26.64749 | 23271 ft | 484 kts | 201° |
| 2026-04-25 18:59 | 45.42720 | 26.61978 | 21557 ft | 469 kts | 201° |
| 2026-04-25 18:59 | 45.36565 | 26.59296 | 19882 ft | 456 kts | 200° |
| 2026-04-25 19:00 | 45.30568 | 26.56682 | 18267 ft | 445 kts | 200° |
| 2026-04-25 19:00 | 45.27627 | 26.55403 | 17355 ft | 440 kts | 200° |
| 2026-04-25 19:01 | 45.21842 | 26.52889 | 15630 ft | 429 kts | 200° |
| 2026-04-25 19:01 | 45.19001 | 26.51656 | 14785 ft | 425 kts | 199° |
| 2026-04-25 19:01 | 45.16189 | 26.50437 | 13966 ft | 420 kts | 199° |
| 2026-04-25 19:01 | 45.13400 | 26.49231 | 13111 ft | 416 kts | 199° |
| 2026-04-25 19:02 | 45.07970 | 26.46886 | 11475 ft | 406 kts | 199° |
| 2026-04-25 19:02 | 45.05316 | 26.45743 | 11114 ft | 391 kts | 198° |
| 2026-04-25 19:02 | 45.02737 | 26.44663 | 10353 ft | 387 kts | 195° |
| 2026-04-25 19:03 | 44.99101 | 26.44079 | 8947 ft | 395 kts | 184° |
| 2026-04-25 19:03 | 44.94586 | 26.43893 | 7733 ft | 385 kts | 182° |
| 2026-04-25 19:03 | 44.91921 | 26.43773 | 7003 ft | 380 kts | 183° |
| 2026-04-25 19:04 | 44.87694 | 26.43514 | 6511 ft | 354 kts | 184° |
| 2026-04-25 19:05 | 44.86456 | 26.43428 | 6425 ft | 346 kts | 184° |
| 2026-04-25 19:05 | 44.81803 | 26.43089 | 5407 ft | 335 kts | 184° |
| 2026-04-25 19:05 | 44.79478 | 26.42916 | 4604 ft | 340 kts | 185° |
| 2026-04-25 19:06 | 44.77145 | 26.42743 | 4209 ft | 330 kts | 185° |
| 2026-04-25 19:06 | 44.72791 | 26.42425 | 4001 ft | 295 kts | 185° |
| 2026-04-25 19:06 | 44.70793 | 26.42278 | 3775 ft | 284 kts | 185° |
| 2026-04-25 19:07 | 44.66771 | 26.41974 | 2687 ft | 288 kts | 185° |
| 2026-04-25 19:07 | 44.64810 | 26.41830 | 2531 ft | 275 kts | 185° |
| 2026-04-25 19:08 | 44.61315 | 26.41030 | 2494 ft | 237 kts | 214° |
| 2026-04-25 19:08 | 44.60240 | 26.39442 | 2499 ft | 218 kts | 244° |
| 2026-04-25 19:09 | 44.59562 | 26.33576 | 2503 ft | 197 kts | 263° |
| 2026-04-25 19:09 | 44.59507 | 26.32939 | 2499 ft | 192 kts | 263° |
| 2026-04-25 19:09 | 44.59169 | 26.28237 | 2501 ft | 180 kts | 263° |
| 2026-04-25 19:10 | 44.59026 | 26.26493 | 2502 ft | 180 kts | 264° |
| 2026-04-25 19:10 | 44.58904 | 26.24774 | 2441 ft | 181 kts | 264° |
| 2026-04-25 19:10 | 44.58786 | 26.22969 | 2011 ft | 185 kts | 264° |
| 2026-04-25 19:10 | 44.58656 | 26.21153 | 1450 ft | 188 kts | 263° |
| 2026-04-25 19:11 | 44.58493 | 26.19369 | 1151 ft | 178 kts | 263° |
| 2026-04-25 19:11 | 44.58362 | 26.17640 | 991 ft | 180 kts | 263° |
| 2026-04-25 19:11 | 44.58232 | 26.16032 | 897 ft | 155 kts | 263° |
| 2026-04-25 19:11 | 44.58133 | 26.14606 | 716 ft | 138 kts | 263° |
| 2026-04-25 19:12 | 44.58035 | 26.13308 | 436 ft | 131 kts | 261° |
| 2026-04-25 19:12 | 44.57946 | 26.12105 | 348 ft | 129 kts | 262° |
| 2026-04-25 19:12 | 44.57846 | 26.10906 | 321 ft | 107 kts | 266° |
| 2026-04-25 19:12 | 44.57799 | 26.10241 | 326 ft | 47 kts | 262° |
| 2026-04-25 19:13 | 44.57726 | 26.09989 | 323 ft | 13 kts | 235° |
| 2026-04-25 19:13 | 44.57674 | 26.09889 | 326 ft | 0 kts | 233° |
| 2026-04-25 19:13 | 44.57672 | 26.09885 | 326 ft | 3 kts | 233° |
| 2026-04-25 19:13 | 44.57611 | 26.09836 | 324 ft | 19 kts | 192° |
| 2026-04-25 19:14 | 44.57437 | 26.09854 | 327 ft | 30 kts | 174° |
| 2026-04-25 19:14 | 44.57311 | 26.09870 | 326 ft | 26 kts | 174° |
| 2026-04-25 19:14 | 44.57116 | 26.09902 | 325 ft | 0 kts | 174° |
| 2026-04-25 19:14 | 44.57033 | 26.09880 | 326 ft | 23 kts | 226° |
| 2026-04-25 19:15 | 44.57001 | 26.09637 | 327 ft | 25 kts | 264° |
| 2026-04-25 19:15 | 44.56980 | 26.09378 | 327 ft | 24 kts | 264° |
| 2026-04-25 19:15 | 44.56954 | 26.09182 | 325 ft | 12 kts | 216° |
| 2026-04-25 19:15 | 44.56877 | 26.09176 | 326 ft | 0 kts | 174° |